sensor_id;sensor_type;location;lat;lon;timestamp;P1;durP1;ratioP1;P2;durP2;ratioP2
73550;SDS011;61816;53.582;10.096;2023-08-24T00:01:33;14.50;;;4.95;;
73550;SDS011;61816;53.582;10.096;2023-08-24T00:03:58;12.93;;;3.92;;
73550;SDS011;61816;53.582;10.096;2023-08-24T00:06:23;12.75;;;3.95;;
73550;SDS011;61816;53.582;10.096;2023-08-24T00:08:49;9.65;;;4.18;;
73550;SDS011;61816;53.582;10.096;2023-08-24T00:11:15;12.75;;;4.82;;
73550;SDS011;61816;53.582;10.096;2023-08-24T00:13:44;14.60;;;4.20;;
73550;SDS011;61816;53.582;10.096;2023-08-24T00:16:14;12.38;;;4.15;;
73550;SDS011;61816;53.582;10.096;2023-08-24T00:18:43;15.45;;;4.15;;
73550;SDS011;61816;53.582;10.096;2023-08-24T00:21:10;15.65;;;4.10;;
73550;SDS011;61816;53.582;10.096;2023-08-24T00:23:37;8.18;;;3.70;;
73550;SDS011;61816;53.582;10.096;2023-08-24T00:26:02;14.18;;;3.83;;
73550;SDS011;61816;53.582;10.096;2023-08-24T00:28:27;12.77;;;3.88;;
73550;SDS011;61816;53.582;10.096;2023-08-24T00:30:53;13.45;;;4.25;;
73550;SDS011;61816;53.582;10.096;2023-08-24T00:33:18;11.60;;;3.50;;
73550;SDS011;61816;53.582;10.096;2023-08-24T00:35:44;10.70;;;3.70;;
73550;SDS011;61816;53.582;10.096;2023-08-24T00:38:10;14.02;;;3.83;;
73550;SDS011;61816;53.582;10.096;2023-08-24T00:40:35;9.80;;;3.65;;
73550;SDS011;61816;53.582;10.096;2023-08-24T00:43:01;11.95;;;4.80;;
73550;SDS011;61816;53.582;10.096;2023-08-24T00:45:26;8.73;;;3.67;;
73550;SDS011;61816;53.582;10.096;2023-08-24T00:47:52;10.02;;;3.88;;
73550;SDS011;61816;53.582;10.096;2023-08-24T00:50:18;14.60;;;4.57;;
73550;SDS011;61816;53.582;10.096;2023-08-24T00:52:43;16.10;;;4.07;;
73550;SDS011;61816;53.582;10.096;2023-08-24T00:55:09;13.20;;;3.50;;
73550;SDS011;61816;53.582;10.096;2023-08-24T00:57:35;11.88;;;3.92;;
73550;SDS011;61816;53.582;10.096;2023-08-24T01:00:02;11.50;;;4.13;;
73550;SDS011;61816;53.582;10.096;2023-08-24T01:02:31;11.57;;;4.10;;
73550;SDS011;61816;53.582;10.096;2023-08-24T01:04:57;18.88;;;3.90;;
73550;SDS011;61816;53.582;10.096;2023-08-24T01:07:23;8.13;;;3.88;;
73550;SDS011;61816;53.582;10.096;2023-08-24T01:09:49;14.05;;;5.60;;
73550;SDS011;61816;53.582;10.096;2023-08-24T01:12:20;12.38;;;3.97;;
73550;SDS011;61816;53.582;10.096;2023-08-24T01:17:36;19.25;;;4.03;;
73550;SDS011;61816;53.582;10.096;2023-08-24T01:20:04;14.90;;;4.15;;
73550;SDS011;61816;53.582;10.096;2023-08-24T01:22:32;13.75;;;4.28;;
73550;SDS011;61816;53.582;10.096;2023-08-24T01:27:42;13.27;;;4.45;;
73550;SDS011;61816;53.582;10.096;2023-08-24T01:30:08;15.32;;;4.45;;
73550;SDS011;61816;53.582;10.096;2023-08-24T01:32:34;12.77;;;4.88;;
73550;SDS011;61816;53.582;10.096;2023-08-24T01:35:02;15.20;;;4.93;;
73550;SDS011;61816;53.582;10.096;2023-08-24T01:37:29;12.27;;;4.95;;
73550;SDS011;61816;53.582;10.096;2023-08-24T01:40:10;11.35;;;3.70;;
73550;SDS011;61816;53.582;10.096;2023-08-24T01:42:47;12.38;;;3.80;;
73550;SDS011;61816;53.582;10.096;2023-08-24T01:45:19;6.25;;;3.65;;
73550;SDS011;61816;53.582;10.096;2023-08-24T01:47:47;14.85;;;5.03;;
73550;SDS011;61816;53.582;10.096;2023-08-24T01:50:14;10.60;;;3.55;;
73550;SDS011;61816;53.582;10.096;2023-08-24T01:52:40;9.38;;;3.95;;
73550;SDS011;61816;53.582;10.096;2023-08-24T01:55:07;9.07;;;4.97;;
73550;SDS011;61816;53.582;10.096;2023-08-24T01:57:32;13.68;;;4.80;;
73550;SDS011;61816;53.582;10.096;2023-08-24T01:59:58;10.25;;;4.13;;
73550;SDS011;61816;53.582;10.096;2023-08-24T02:02:23;11.02;;;4.80;;
73550;SDS011;61816;53.582;10.096;2023-08-24T02:04:49;17.00;;;6.18;;
73550;SDS011;61816;53.582;10.096;2023-08-24T02:07:15;15.45;;;5.65;;
73550;SDS011;61816;53.582;10.096;2023-08-24T02:09:41;20.55;;;5.10;;
73550;SDS011;61816;53.582;10.096;2023-08-24T02:12:06;15.43;;;4.53;;
73550;SDS011;61816;53.582;10.096;2023-08-24T02:14:32;18.15;;;6.00;;
73550;SDS011;61816;53.582;10.096;2023-08-24T02:16:57;14.40;;;5.65;;
73550;SDS011;61816;53.582;10.096;2023-08-24T02:19:22;17.70;;;4.75;;
73550;SDS011;61816;53.582;10.096;2023-08-24T02:21:48;12.80;;;6.47;;
73550;SDS011;61816;53.582;10.096;2023-08-24T02:24:13;16.25;;;5.82;;
73550;SDS011;61816;53.582;10.096;2023-08-24T02:26:38;14.25;;;5.38;;
73550;SDS011;61816;53.582;10.096;2023-08-24T02:29:04;14.88;;;5.45;;
73550;SDS011;61816;53.582;10.096;2023-08-24T02:31:29;15.27;;;5.53;;
73550;SDS011;61816;53.582;10.096;2023-08-24T02:33:55;20.75;;;4.72;;
73550;SDS011;61816;53.582;10.096;2023-08-24T02:36:20;12.73;;;4.63;;
73550;SDS011;61816;53.582;10.096;2023-08-24T02:38:46;15.02;;;4.60;;
73550;SDS011;61816;53.582;10.096;2023-08-24T02:41:12;15.73;;;6.43;;
73550;SDS011;61816;53.582;10.096;2023-08-24T02:43:39;11.57;;;4.78;;
73550;SDS011;61816;53.582;10.096;2023-08-24T02:46:07;17.77;;;5.75;;
73550;SDS011;61816;53.582;10.096;2023-08-24T02:48:35;12.45;;;5.10;;
73550;SDS011;61816;53.582;10.096;2023-08-24T02:51:01;14.07;;;5.07;;
73550;SDS011;61816;53.582;10.096;2023-08-24T02:53:28;19.10;;;4.65;;
73550;SDS011;61816;53.582;10.096;2023-08-24T02:55:54;17.67;;;5.55;;
73550;SDS011;61816;53.582;10.096;2023-08-24T02:58:19;10.55;;;3.90;;
73550;SDS011;61816;53.582;10.096;2023-08-24T03:00:45;12.48;;;4.47;;
73550;SDS011;61816;53.582;10.096;2023-08-24T03:03:12;16.63;;;4.97;;
73550;SDS011;61816;53.582;10.096;2023-08-24T03:05:41;13.25;;;5.20;;
73550;SDS011;61816;53.582;10.096;2023-08-24T03:08:23;12.85;;;4.80;;
73550;SDS011;61816;53.582;10.096;2023-08-24T03:10:49;13.45;;;5.20;;
73550;SDS011;61816;53.582;10.096;2023-08-24T03:13:15;15.75;;;6.28;;
73550;SDS011;61816;53.582;10.096;2023-08-24T03:15:40;9.55;;;5.05;;
73550;SDS011;61816;53.582;10.096;2023-08-24T03:18:05;13.63;;;5.00;;
73550;SDS011;61816;53.582;10.096;2023-08-24T03:20:31;16.23;;;6.13;;
73550;SDS011;61816;53.582;10.096;2023-08-24T03:22:56;16.55;;;5.78;;
73550;SDS011;61816;53.582;10.096;2023-08-24T03:25:22;14.70;;;6.10;;
73550;SDS011;61816;53.582;10.096;2023-08-24T03:27:48;18.80;;;6.55;;
73550;SDS011;61816;53.582;10.096;2023-08-24T03:30:13;11.65;;;6.15;;
73550;SDS011;61816;53.582;10.096;2023-08-24T03:32:42;15.00;;;5.90;;
73550;SDS011;61816;53.582;10.096;2023-08-24T03:35:07;20.23;;;6.38;;
73550;SDS011;61816;53.582;10.096;2023-08-24T03:37:33;14.43;;;6.63;;
73550;SDS011;61816;53.582;10.096;2023-08-24T03:39:58;15.15;;;6.40;;
73550;SDS011;61816;53.582;10.096;2023-08-24T03:42:24;15.05;;;6.93;;
73550;SDS011;61816;53.582;10.096;2023-08-24T03:44:49;20.13;;;8.15;;
73550;SDS011;61816;53.582;10.096;2023-08-24T03:47:15;16.83;;;8.55;;
73550;SDS011;61816;53.582;10.096;2023-08-24T03:49:43;14.80;;;7.13;;
73550;SDS011;61816;53.582;10.096;2023-08-24T03:52:09;15.73;;;6.10;;
73550;SDS011;61816;53.582;10.096;2023-08-24T03:54:34;21.10;;;7.25;;
73550;SDS011;61816;53.582;10.096;2023-08-24T03:56:59;18.80;;;7.20;;
73550;SDS011;61816;53.582;10.096;2023-08-24T03:59:25;16.90;;;8.18;;
73550;SDS011;61816;53.582;10.096;2023-08-24T04:01:50;16.73;;;6.97;;
73550;SDS011;61816;53.582;10.096;2023-08-24T04:04:15;16.60;;;7.22;;
73550;SDS011;61816;53.582;10.096;2023-08-24T04:06:41;22.35;;;7.85;;
73550;SDS011;61816;53.582;10.096;2023-08-24T04:09:06;17.85;;;6.82;;
73550;SDS011;61816;53.582;10.096;2023-08-24T04:11:31;20.10;;;8.35;;
73550;SDS011;61816;53.582;10.096;2023-08-24T04:13:57;16.80;;;7.72;;
73550;SDS011;61816;53.582;10.096;2023-08-24T04:16:22;15.02;;;6.82;;
73550;SDS011;61816;53.582;10.096;2023-08-24T04:18:47;13.95;;;7.32;;
73550;SDS011;61816;53.582;10.096;2023-08-24T04:21:13;20.95;;;8.38;;
73550;SDS011;61816;53.582;10.096;2023-08-24T04:23:38;14.15;;;7.47;;
73550;SDS011;61816;53.582;10.096;2023-08-24T04:26:07;20.17;;;8.25;;
73550;SDS011;61816;53.582;10.096;2023-08-24T04:28:32;18.20;;;8.60;;
73550;SDS011;61816;53.582;10.096;2023-08-24T04:30:58;17.67;;;8.18;;
73550;SDS011;61816;53.582;10.096;2023-08-24T04:33:23;13.73;;;7.57;;
73550;SDS011;61816;53.582;10.096;2023-08-24T04:35:49;22.63;;;8.20;;
73550;SDS011;61816;53.582;10.096;2023-08-24T04:38:15;21.00;;;8.50;;
73550;SDS011;61816;53.582;10.096;2023-08-24T04:40:48;18.58;;;8.82;;
73550;SDS011;61816;53.582;10.096;2023-08-24T04:43:16;12.70;;;6.78;;
73550;SDS011;61816;53.582;10.096;2023-08-24T04:45:42;17.33;;;7.65;;
73550;SDS011;61816;53.582;10.096;2023-08-24T04:48:07;15.40;;;7.20;;
73550;SDS011;61816;53.582;10.096;2023-08-24T04:50:33;19.95;;;7.57;;
73550;SDS011;61816;53.582;10.096;2023-08-24T04:52:58;12.95;;;7.38;;
73550;SDS011;61816;53.582;10.096;2023-08-24T04:55:24;15.20;;;7.63;;
73550;SDS011;61816;53.582;10.096;2023-08-24T04:57:49;11.95;;;6.93;;
73550;SDS011;61816;53.582;10.096;2023-08-24T05:00:14;16.50;;;8.48;;
73550;SDS011;61816;53.582;10.096;2023-08-24T05:02:42;19.10;;;9.13;;
73550;SDS011;61816;53.582;10.096;2023-08-24T05:05:08;18.27;;;8.73;;
73550;SDS011;61816;53.582;10.096;2023-08-24T05:07:35;15.00;;;7.45;;
73550;SDS011;61816;53.582;10.096;2023-08-24T05:10:03;18.08;;;8.25;;
73550;SDS011;61816;53.582;10.096;2023-08-24T05:12:29;17.80;;;8.48;;
73550;SDS011;61816;53.582;10.096;2023-08-24T05:14:54;20.23;;;8.57;;
73550;SDS011;61816;53.582;10.096;2023-08-24T05:17:20;22.88;;;9.57;;
73550;SDS011;61816;53.582;10.096;2023-08-24T05:19:50;18.45;;;9.50;;
73550;SDS011;61816;53.582;10.096;2023-08-24T05:22:16;19.90;;;8.40;;
73550;SDS011;61816;53.582;10.096;2023-08-24T05:24:41;19.90;;;9.48;;
73550;SDS011;61816;53.582;10.096;2023-08-24T05:27:07;24.13;;;9.73;;
73550;SDS011;61816;53.582;10.096;2023-08-24T05:29:32;17.70;;;8.82;;
73550;SDS011;61816;53.582;10.096;2023-08-24T05:31:57;16.98;;;9.48;;
73550;SDS011;61816;53.582;10.096;2023-08-24T05:34:23;19.40;;;9.00;;
73550;SDS011;61816;53.582;10.096;2023-08-24T05:36:48;18.13;;;8.73;;
73550;SDS011;61816;53.582;10.096;2023-08-24T05:39:13;19.20;;;9.23;;
73550;SDS011;61816;53.582;10.096;2023-08-24T05:41:39;21.30;;;10.50;;
73550;SDS011;61816;53.582;10.096;2023-08-24T05:44:04;21.73;;;10.05;;
73550;SDS011;61816;53.582;10.096;2023-08-24T05:46:29;20.38;;;9.25;;
73550;SDS011;61816;53.582;10.096;2023-08-24T05:48:55;22.08;;;9.40;;
73550;SDS011;61816;53.582;10.096;2023-08-24T05:51:21;18.35;;;8.65;;
73550;SDS011;61816;53.582;10.096;2023-08-24T05:53:47;13.25;;;7.07;;
73550;SDS011;61816;53.582;10.096;2023-08-24T05:56:12;13.70;;;7.68;;
73550;SDS011;61816;53.582;10.096;2023-08-24T05:58:37;23.23;;;14.82;;
73550;SDS011;61816;53.582;10.096;2023-08-24T06:01:03;14.73;;;6.68;;
73550;SDS011;61816;53.582;10.096;2023-08-24T06:03:28;14.48;;;5.88;;
73550;SDS011;61816;53.582;10.096;2023-08-24T06:05:53;13.90;;;4.95;;
73550;SDS011;61816;53.582;10.096;2023-08-24T06:08:19;10.07;;;4.63;;
73550;SDS011;61816;53.582;10.096;2023-08-24T06:10:45;13.25;;;4.25;;
73550;SDS011;61816;53.582;10.096;2023-08-24T06:13:10;5.28;;;3.83;;
73550;SDS011;61816;53.582;10.096;2023-08-24T06:15:35;8.23;;;3.95;;
73550;SDS011;61816;53.582;10.096;2023-08-24T06:18:00;9.55;;;4.05;;
73550;SDS011;61816;53.582;10.096;2023-08-24T06:20:26;15.80;;;4.22;;
73550;SDS011;61816;53.582;10.096;2023-08-24T06:22:51;11.68;;;4.45;;
73550;SDS011;61816;53.582;10.096;2023-08-24T06:25:17;8.57;;;4.00;;
73550;SDS011;61816;53.582;10.096;2023-08-24T06:27:43;8.93;;;3.53;;
73550;SDS011;61816;53.582;10.096;2023-08-24T06:30:08;11.30;;;2.70;;
73550;SDS011;61816;53.582;10.096;2023-08-24T06:32:34;8.85;;;3.50;;
73550;SDS011;61816;53.582;10.096;2023-08-24T06:34:59;6.55;;;3.03;;
73550;SDS011;61816;53.582;10.096;2023-08-24T06:37:25;8.20;;;3.10;;
73550;SDS011;61816;53.582;10.096;2023-08-24T06:39:51;8.38;;;2.67;;
73550;SDS011;61816;53.582;10.096;2023-08-24T06:42:16;9.40;;;2.70;;
73550;SDS011;61816;53.582;10.096;2023-08-24T06:44:41;13.07;;;2.90;;
73550;SDS011;61816;53.582;10.096;2023-08-24T06:47:06;14.23;;;3.35;;
73550;SDS011;61816;53.582;10.096;2023-08-24T06:49:32;10.85;;;5.40;;
73550;SDS011;61816;53.582;10.096;2023-08-24T06:51:57;8.63;;;2.72;;
73550;SDS011;61816;53.582;10.096;2023-08-24T06:54:23;5.13;;;2.17;;
73550;SDS011;61816;53.582;10.096;2023-08-24T06:56:48;11.75;;;2.78;;
73550;SDS011;61816;53.582;10.096;2023-08-24T06:59:13;13.48;;;3.05;;
73550;SDS011;61816;53.582;10.096;2023-08-24T07:01:39;8.25;;;2.42;;
73550;SDS011;61816;53.582;10.096;2023-08-24T07:04:05;8.63;;;2.42;;
73550;SDS011;61816;53.582;10.096;2023-08-24T07:06:33;5.75;;;1.90;;
73550;SDS011;61816;53.582;10.096;2023-08-24T07:08:59;6.35;;;2.22;;
73550;SDS011;61816;53.582;10.096;2023-08-24T07:11:25;6.60;;;2.10;;
73550;SDS011;61816;53.582;10.096;2023-08-24T07:13:51;9.13;;;2.30;;
73550;SDS011;61816;53.582;10.096;2023-08-24T07:16:18;10.52;;;2.22;;
73550;SDS011;61816;53.582;10.096;2023-08-24T07:18:44;8.48;;;2.17;;
73550;SDS011;61816;53.582;10.096;2023-08-24T07:21:09;11.20;;;2.55;;
73550;SDS011;61816;53.582;10.096;2023-08-24T07:23:35;7.55;;;3.40;;
73550;SDS011;61816;53.582;10.096;2023-08-24T07:26:00;11.38;;;2.60;;
73550;SDS011;61816;53.582;10.096;2023-08-24T07:28:25;6.43;;;2.28;;
73550;SDS011;61816;53.582;10.096;2023-08-24T07:30:51;27.10;;;9.45;;
73550;SDS011;61816;53.582;10.096;2023-08-24T07:33:21;8.88;;;2.35;;
73550;SDS011;61816;53.582;10.096;2023-08-24T07:35:47;6.05;;;2.33;;
73550;SDS011;61816;53.582;10.096;2023-08-24T07:38:12;11.50;;;3.38;;
73550;SDS011;61816;53.582;10.096;2023-08-24T07:40:38;9.73;;;3.28;;
73550;SDS011;61816;53.582;10.096;2023-08-24T07:43:03;5.00;;;2.05;;
73550;SDS011;61816;53.582;10.096;2023-08-24T07:45:29;5.03;;;1.95;;
73550;SDS011;61816;53.582;10.096;2023-08-24T07:47:54;6.18;;;2.65;;
73550;SDS011;61816;53.582;10.096;2023-08-24T07:50:20;10.00;;;2.63;;
73550;SDS011;61816;53.582;10.096;2023-08-24T07:52:47;6.05;;;1.70;;
73550;SDS011;61816;53.582;10.096;2023-08-24T07:55:12;8.02;;;1.63;;
73550;SDS011;61816;53.582;10.096;2023-08-24T07:57:38;10.57;;;1.67;;
73550;SDS011;61816;53.582;10.096;2023-08-24T08:00:04;6.63;;;1.75;;
73550;SDS011;61816;53.582;10.096;2023-08-24T08:02:30;7.75;;;2.20;;
73550;SDS011;61816;53.582;10.096;2023-08-24T08:04:57;6.15;;;1.92;;
73550;SDS011;61816;53.582;10.096;2023-08-24T08:07:24;6.78;;;1.85;;
73550;SDS011;61816;53.582;10.096;2023-08-24T08:09:50;5.60;;;2.22;;
73550;SDS011;61816;53.582;10.096;2023-08-24T08:12:16;8.55;;;2.83;;
73550;SDS011;61816;53.582;10.096;2023-08-24T08:14:41;12.95;;;2.33;;
73550;SDS011;61816;53.582;10.096;2023-08-24T08:17:06;7.97;;;1.83;;
73550;SDS011;61816;53.582;10.096;2023-08-24T08:19:32;9.23;;;2.15;;
73550;SDS011;61816;53.582;10.096;2023-08-24T08:22:00;6.45;;;2.00;;
73550;SDS011;61816;53.582;10.096;2023-08-24T08:24:25;8.32;;;2.00;;
73550;SDS011;61816;53.582;10.096;2023-08-24T08:26:50;6.43;;;1.70;;
73550;SDS011;61816;53.582;10.096;2023-08-24T08:29:16;7.30;;;1.90;;
73550;SDS011;61816;53.582;10.096;2023-08-24T08:31:42;8.88;;;1.95;;
73550;SDS011;61816;53.582;10.096;2023-08-24T08:34:07;9.68;;;2.22;;
73550;SDS011;61816;53.582;10.096;2023-08-24T08:36:32;7.25;;;2.03;;
73550;SDS011;61816;53.582;10.096;2023-08-24T08:38:58;7.75;;;1.92;;
73550;SDS011;61816;53.582;10.096;2023-08-24T08:41:25;7.15;;;2.20;;
73550;SDS011;61816;53.582;10.096;2023-08-24T08:43:55;8.75;;;2.40;;
73550;SDS011;61816;53.582;10.096;2023-08-24T08:46:21;11.07;;;2.20;;
73550;SDS011;61816;53.582;10.096;2023-08-24T08:48:46;13.02;;;2.08;;
73550;SDS011;61816;53.582;10.096;2023-08-24T08:51:13;20.35;;;2.22;;
73550;SDS011;61816;53.582;10.096;2023-08-24T08:53:39;11.73;;;2.63;;
73550;SDS011;61816;53.582;10.096;2023-08-24T08:56:05;8.23;;;2.05;;
73550;SDS011;61816;53.582;10.096;2023-08-24T08:58:32;11.88;;;2.40;;
73550;SDS011;61816;53.582;10.096;2023-08-24T09:01:01;4.60;;;2.00;;
73550;SDS011;61816;53.582;10.096;2023-08-24T09:03:28;6.20;;;1.70;;
73550;SDS011;61816;53.582;10.096;2023-08-24T09:05:57;12.50;;;5.45;;
73550;SDS011;61816;53.582;10.096;2023-08-24T09:08:22;9.38;;;2.70;;
73550;SDS011;61816;53.582;10.096;2023-08-24T09:10:53;13.25;;;4.10;;
73550;SDS011;61816;53.582;10.096;2023-08-24T09:13:20;9.60;;;1.98;;
73550;SDS011;61816;53.582;10.096;2023-08-24T09:15:46;14.15;;;2.97;;
73550;SDS011;61816;53.582;10.096;2023-08-24T09:18:11;7.45;;;1.92;;
73550;SDS011;61816;53.582;10.096;2023-08-24T09:20:36;6.97;;;2.42;;
73550;SDS011;61816;53.582;10.096;2023-08-24T09:23:02;8.18;;;2.17;;
73550;SDS011;61816;53.582;10.096;2023-08-24T09:25:28;4.32;;;1.50;;
73550;SDS011;61816;53.582;10.096;2023-08-24T09:27:57;5.22;;;1.85;;
73550;SDS011;61816;53.582;10.096;2023-08-24T09:30:22;7.15;;;2.00;;
73550;SDS011;61816;53.582;10.096;2023-08-24T09:32:48;5.70;;;1.98;;
73550;SDS011;61816;53.582;10.096;2023-08-24T09:35:13;7.03;;;1.80;;
73550;SDS011;61816;53.582;10.096;2023-08-24T09:37:40;9.68;;;2.22;;
73550;SDS011;61816;53.582;10.096;2023-08-24T09:40:10;11.40;;;2.08;;
73550;SDS011;61816;53.582;10.096;2023-08-24T09:42:40;11.80;;;2.35;;
73550;SDS011;61816;53.582;10.096;2023-08-24T09:45:16;11.05;;;2.25;;
73550;SDS011;61816;53.582;10.096;2023-08-24T09:47:45;13.80;;;2.85;;
73550;SDS011;61816;53.582;10.096;2023-08-24T09:50:12;11.77;;;2.30;;
73550;SDS011;61816;53.582;10.096;2023-08-24T09:52:37;13.55;;;2.00;;
73550;SDS011;61816;53.582;10.096;2023-08-24T09:55:06;14.23;;;2.70;;
73550;SDS011;61816;53.582;10.096;2023-08-24T09:57:37;10.30;;;2.70;;
73550;SDS011;61816;53.582;10.096;2023-08-24T10:00:07;8.27;;;2.28;;
73550;SDS011;61816;53.582;10.096;2023-08-24T10:02:41;14.70;;;2.58;;
73550;SDS011;61816;53.582;10.096;2023-08-24T10:05:15;14.48;;;2.60;;
73550;SDS011;61816;53.582;10.096;2023-08-24T10:07:55;6.75;;;2.20;;
73550;SDS011;61816;53.582;10.096;2023-08-24T10:10:21;13.30;;;3.75;;
73550;SDS011;61816;53.582;10.096;2023-08-24T10:15:23;8.30;;;3.03;;
73550;SDS011;61816;53.582;10.096;2023-08-24T10:17:49;9.73;;;3.05;;
73550;SDS011;61816;53.582;10.096;2023-08-24T10:20:17;10.50;;;2.67;;
73550;SDS011;61816;53.582;10.096;2023-08-24T10:22:45;12.85;;;2.83;;
73550;SDS011;61816;53.582;10.096;2023-08-24T10:25:11;13.80;;;2.90;;
73550;SDS011;61816;53.582;10.096;2023-08-24T10:27:38;12.85;;;3.05;;
73550;SDS011;61816;53.582;10.096;2023-08-24T10:30:08;5.63;;;2.45;;
73550;SDS011;61816;53.582;10.096;2023-08-24T10:32:38;7.90;;;3.13;;
73550;SDS011;61816;53.582;10.096;2023-08-24T10:35:05;8.70;;;2.88;;
73550;SDS011;61816;53.582;10.096;2023-08-24T10:37:31;9.32;;;2.72;;
73550;SDS011;61816;53.582;10.096;2023-08-24T10:39:59;8.60;;;2.83;;
73550;SDS011;61816;53.582;10.096;2023-08-24T10:42:25;6.22;;;2.75;;
73550;SDS011;61816;53.582;10.096;2023-08-24T10:44:51;14.25;;;2.58;;
73550;SDS011;61816;53.582;10.096;2023-08-24T10:47:21;6.65;;;2.58;;
73550;SDS011;61816;53.582;10.096;2023-08-24T10:52:25;7.78;;;3.22;;
73550;SDS011;61816;53.582;10.096;2023-08-24T10:54:52;17.63;;;2.90;;
73550;SDS011;61816;53.582;10.096;2023-08-24T10:57:19;9.93;;;2.90;;
73550;SDS011;61816;53.582;10.096;2023-08-24T10:59:59;11.18;;;3.03;;
73550;SDS011;61816;53.582;10.096;2023-08-24T11:02:30;8.85;;;2.83;;
73550;SDS011;61816;53.582;10.096;2023-08-24T11:05:27;6.63;;;2.60;;
73550;SDS011;61816;53.582;10.096;2023-08-24T11:07:56;10.82;;;3.47;;
73550;SDS011;61816;53.582;10.096;2023-08-24T11:10:23;5.30;;;2.70;;
73550;SDS011;61816;53.582;10.096;2023-08-24T11:13:06;6.07;;;2.58;;
73550;SDS011;61816;53.582;10.096;2023-08-24T11:15:37;13.57;;;3.35;;
73550;SDS011;61816;53.582;10.096;2023-08-24T11:18:10;10.55;;;2.58;;
73550;SDS011;61816;53.582;10.096;2023-08-24T11:20:56;21.20;;;2.97;;
73550;SDS011;61816;53.582;10.096;2023-08-24T11:23:25;9.77;;;2.67;;
73550;SDS011;61816;53.582;10.096;2023-08-24T11:25:52;10.07;;;2.83;;
73550;SDS011;61816;53.582;10.096;2023-08-24T11:28:21;12.27;;;2.70;;
73550;SDS011;61816;53.582;10.096;2023-08-24T11:30:47;6.65;;;2.03;;
73550;SDS011;61816;53.582;10.096;2023-08-24T11:33:13;15.88;;;3.50;;
73550;SDS011;61816;53.582;10.096;2023-08-24T11:35:43;9.02;;;2.78;;
73550;SDS011;61816;53.582;10.096;2023-08-24T11:38:09;12.02;;;4.07;;
73550;SDS011;61816;53.582;10.096;2023-08-24T11:40:35;6.65;;;2.72;;
73550;SDS011;61816;53.582;10.096;2023-08-24T11:43:02;14.15;;;2.50;;
73550;SDS011;61816;53.582;10.096;2023-08-24T11:45:32;20.00;;;3.78;;
73550;SDS011;61816;53.582;10.096;2023-08-24T11:48:01;8.43;;;3.10;;
73550;SDS011;61816;53.582;10.096;2023-08-24T11:50:29;9.50;;;2.95;;
73550;SDS011;61816;53.582;10.096;2023-08-24T11:52:55;7.90;;;3.10;;
73550;SDS011;61816;53.582;10.096;2023-08-24T11:55:21;6.90;;;2.90;;
73550;SDS011;61816;53.582;10.096;2023-08-24T11:57:50;12.10;;;3.30;;
73550;SDS011;61816;53.582;10.096;2023-08-24T12:00:17;16.10;;;3.72;;
73550;SDS011;61816;53.582;10.096;2023-08-24T12:02:44;8.20;;;2.88;;
73550;SDS011;61816;53.582;10.096;2023-08-24T12:05:20;13.80;;;2.95;;
73550;SDS011;61816;53.582;10.096;2023-08-24T12:07:49;11.60;;;2.65;;
73550;SDS011;61816;53.582;10.096;2023-08-24T12:10:17;9.32;;;2.83;;
73550;SDS011;61816;53.582;10.096;2023-08-24T12:12:42;13.82;;;3.00;;
73550;SDS011;61816;53.582;10.096;2023-08-24T12:15:08;10.75;;;2.55;;
73550;SDS011;61816;53.582;10.096;2023-08-24T12:17:44;6.80;;;2.67;;
73550;SDS011;61816;53.582;10.096;2023-08-24T12:20:16;8.85;;;3.35;;
73550;SDS011;61816;53.582;10.096;2023-08-24T12:22:43;6.72;;;2.85;;
73550;SDS011;61816;53.582;10.096;2023-08-24T12:25:08;10.18;;;3.65;;
73550;SDS011;61816;53.582;10.096;2023-08-24T12:27:34;18.10;;;2.92;;
73550;SDS011;61816;53.582;10.096;2023-08-24T12:30:02;14.18;;;3.30;;
73550;SDS011;61816;53.582;10.096;2023-08-24T12:32:41;15.85;;;3.00;;
73550;SDS011;61816;53.582;10.096;2023-08-24T12:35:10;8.77;;;2.85;;
73550;SDS011;61816;53.582;10.096;2023-08-24T12:37:36;8.60;;;2.30;;
73550;SDS011;61816;53.582;10.096;2023-08-24T12:40:02;11.85;;;2.80;;
73550;SDS011;61816;53.582;10.096;2023-08-24T12:42:30;13.25;;;3.42;;
73550;SDS011;61816;53.582;10.096;2023-08-24T12:44:56;6.57;;;2.42;;
73550;SDS011;61816;53.582;10.096;2023-08-24T12:47:21;14.70;;;3.08;;
73550;SDS011;61816;53.582;10.096;2023-08-24T12:49:47;10.52;;;2.90;;
73550;SDS011;61816;53.582;10.096;2023-08-24T12:52:12;20.88;;;2.70;;
73550;SDS011;61816;53.582;10.096;2023-08-24T12:54:38;13.95;;;3.28;;
73550;SDS011;61816;53.582;10.096;2023-08-24T12:57:03;14.75;;;2.63;;
73550;SDS011;61816;53.582;10.096;2023-08-24T12:59:28;7.85;;;2.72;;
73550;SDS011;61816;53.582;10.096;2023-08-24T13:01:54;10.57;;;2.85;;
73550;SDS011;61816;53.582;10.096;2023-08-24T13:04:19;6.13;;;2.60;;
73550;SDS011;61816;53.582;10.096;2023-08-24T13:06:45;12.15;;;3.28;;
73550;SDS011;61816;53.582;10.096;2023-08-24T13:09:10;11.45;;;2.50;;
73550;SDS011;61816;53.582;10.096;2023-08-24T13:11:37;5.00;;;2.30;;
73550;SDS011;61816;53.582;10.096;2023-08-24T13:14:02;10.65;;;3.47;;
73550;SDS011;61816;53.582;10.096;2023-08-24T13:16:28;4.53;;;2.50;;
73550;SDS011;61816;53.582;10.096;2023-08-24T13:18:53;6.88;;;2.60;;
73550;SDS011;61816;53.582;10.096;2023-08-24T13:21:19;5.90;;;2.30;;
73550;SDS011;61816;53.582;10.096;2023-08-24T13:23:45;7.03;;;2.40;;
73550;SDS011;61816;53.582;10.096;2023-08-24T13:26:18;8.63;;;2.40;;
73550;SDS011;61816;53.582;10.096;2023-08-24T13:28:51;14.32;;;3.00;;
73550;SDS011;61816;53.582;10.096;2023-08-24T13:31:17;8.27;;;2.78;;
73550;SDS011;61816;53.582;10.096;2023-08-24T13:33:43;6.78;;;2.70;;
73550;SDS011;61816;53.582;10.096;2023-08-24T13:36:09;3.13;;;1.92;;
73550;SDS011;61816;53.582;10.096;2023-08-24T13:38:35;6.93;;;2.38;;
73550;SDS011;61816;53.582;10.096;2023-08-24T13:41:00;7.97;;;2.85;;
73550;SDS011;61816;53.582;10.096;2023-08-24T13:43:25;11.93;;;2.83;;
73550;SDS011;61816;53.582;10.096;2023-08-24T13:45:51;3.90;;;2.25;;
73550;SDS011;61816;53.582;10.096;2023-08-24T13:48:16;10.65;;;2.28;;
73550;SDS011;61816;53.582;10.096;2023-08-24T13:50:41;7.45;;;2.28;;
73550;SDS011;61816;53.582;10.096;2023-08-24T13:53:07;7.07;;;2.45;;
73550;SDS011;61816;53.582;10.096;2023-08-24T13:55:32;7.15;;;2.70;;
73550;SDS011;61816;53.582;10.096;2023-08-24T13:57:58;8.05;;;2.67;;
73550;SDS011;61816;53.582;10.096;2023-08-24T14:00:23;9.05;;;2.47;;
73550;SDS011;61816;53.582;10.096;2023-08-24T14:02:49;5.65;;;2.40;;
73550;SDS011;61816;53.582;10.096;2023-08-24T14:05:14;7.50;;;2.25;;
73550;SDS011;61816;53.582;10.096;2023-08-24T14:07:40;5.28;;;2.42;;
73550;SDS011;61816;53.582;10.096;2023-08-24T14:10:06;8.48;;;2.63;;
73550;SDS011;61816;53.582;10.096;2023-08-24T14:12:33;6.28;;;2.42;;
73550;SDS011;61816;53.582;10.096;2023-08-24T14:14:59;10.05;;;2.70;;
73550;SDS011;61816;53.582;10.096;2023-08-24T14:17:24;8.43;;;2.63;;
73550;SDS011;61816;53.582;10.096;2023-08-24T14:19:50;6.78;;;2.33;;
73550;SDS011;61816;53.582;10.096;2023-08-24T14:22:15;7.07;;;2.65;;
73550;SDS011;61816;53.582;10.096;2023-08-24T14:24:40;8.10;;;2.15;;
73550;SDS011;61816;53.582;10.096;2023-08-24T14:27:06;7.40;;;3.05;;
73550;SDS011;61816;53.582;10.096;2023-08-24T14:29:43;11.52;;;2.90;;
73550;SDS011;61816;53.582;10.096;2023-08-24T14:32:11;9.75;;;1.88;;
73550;SDS011;61816;53.582;10.096;2023-08-24T14:34:37;12.27;;;2.30;;